Time;durP1;ratioP1;P1;durP2;ratioP2;P2;SDS_P1;SDS_P2;PMS_P1;PMS_P2;Temp;Humidity;BMP_temperature;BMP_pressure;BME280_temperature;BME280_humidity;BME280_pressure;Samples;Min_cycle;Max_cycle;Signal;HPM_P1;HPM_P2
2023/12/15 00:51:32;;;;;;;69.82;26.20;;;6.80;99.90;;;;;;5647797;22;20045;-76
2023/12/15 00:53:57;;;;;;;73.38;27.42;;;6.80;99.90;;;;;;4996266;28;20042;-76
2023/12/15 00:56:23;;;;;;;65.43;27.75;;;6.80;99.90;;;;;;4996067;28;20481;-76
2023/12/15 00:58:49;;;;;;;59.97;27.00;;;6.90;99.90;;;;;;5013846;28;20124;-76
2023/12/15 01:01:15;;;;;;;71.20;27.08;;;6.90;99.90;;;;;;5013724;28;20187;-76
2023/12/15 01:03:40;;;;;;;69.45;29.10;;;6.90;99.90;;;;;;4996050;28;20511;-76
2023/12/15 01:06:07;;;;;;;65.65;27.05;;;7.00;99.90;;;;;;5013756;28;20040;-76
2023/12/15 01:08:32;;;;;;;75.32;28.73;;;6.90;99.90;;;;;;5013471;28;20104;-77
2023/12/15 01:10:58;;;;;;;79.22;29.50;;;7.00;99.90;;;;;;5013900;28;20045;-77
2023/12/15 01:13:24;;;;;;;76.82;28.42;;;7.00;99.90;;;;;;4996012;28;20046;-78
2023/12/15 01:15:50;;;;;;;75.63;28.98;;;7.00;99.90;;;;;;4995960;28;20042;-77
2023/12/15 01:18:15;;;;;;;81.82;28.35;;;7.00;99.90;;;;;;5013557;28;20073;-77
2023/12/15 01:20:41;;;;;;;79.63;29.00;;;7.00;99.90;;;;;;4995854;28;20096;-76
2023/12/15 01:23:06;;;;;;;80.03;29.63;;;7.00;99.90;;;;;;5013763;28;20034;-77
2023/12/15 01:25:32;;;;;;;78.55;30.38;;;7.10;99.90;;;;;;5013373;28;20393;-77
2023/12/15 01:27:58;;;;;;;81.03;28.85;;;7.10;99.90;;;;;;4995875;28;20085;-76
2023/12/15 01:30:23;;;;;;;74.95;28.58;;;7.00;99.90;;;;;;4995845;28;20029;-77
2023/12/15 01:32:49;;;;;;;84.45;29.52;;;7.10;99.90;;;;;;4996056;28;20192;-78
2023/12/15 01:35:15;;;;;;;72.22;29.25;;;7.10;99.90;;;;;;4996068;28;20128;-77
2023/12/15 01:37:40;;;;;;;68.63;27.48;;;7.10;99.90;;;;;;5013608;28;20516;-77
2023/12/15 01:40:08;;;;;;;70.22;27.67;;;7.10;99.90;;;;;;4995623;28;20513;-76
2023/12/15 01:42:33;;;;;;;73.28;27.88;;;7.10;99.90;;;;;;4995645;28;20434;-77
2023/12/15 01:44:59;;;;;;;74.70;28.60;;;7.20;99.90;;;;;;4995929;28;20173;-77
2023/12/15 01:47:25;;;;;;;88.85;28.33;;;7.10;99.90;;;;;;5013208;28;20069;-75
2023/12/15 01:49:52;;;;;;;74.05;28.98;;;7.20;99.90;;;;;;5013485;28;20117;-77
2023/12/15 01:52:17;;;;;;;68.75;27.92;;;7.20;99.90;;;;;;4996019;28;20038;-77
2023/12/15 01:54:43;;;;;;;62.83;26.50;;;7.10;99.90;;;;;;5013521;28;20528;-77
2023/12/15 01:57:09;;;;;;;71.22;27.10;;;7.20;99.90;;;;;;4996116;28;20038;-78
2023/12/15 01:59:46;;;;;;;67.25;27.92;;;7.20;99.90;;;;;;4999043;28;20046;-77
2023/12/15 02:02:12;;;;;;;72.85;27.83;;;7.20;99.90;;;;;;5016851;28;20380;-77
2023/12/15 02:04:39;;;;;;;71.53;27.35;;;7.20;99.90;;;;;;5016516;28;20101;-76
2023/12/15 02:07:04;;;;;;;69.50;25.27;;;7.20;99.90;;;;;;5016838;28;20038;-76
2023/12/15 02:09:30;;;;;;;73.40;27.55;;;7.20;99.90;;;;;;4998883;28;20490;-77
2023/12/15 02:11:56;;;;;;;67.28;26.70;;;7.20;99.90;;;;;;4998789;28;20053;-78
2023/12/15 02:14:22;;;;;;;59.38;26.10;;;7.20;99.90;;;;;;5016705;28;20038;-77
2023/12/15 02:16:47;;;;;;;70.60;26.88;;;7.20;99.90;;;;;;4998834;28;20045;-76
2023/12/15 02:19:13;;;;;;;70.65;26.67;;;7.20;99.90;;;;;;4998807;28;20050;-77
2023/12/15 02:21:39;;;;;;;62.05;24.92;;;7.20;99.90;;;;;;4998706;28;20038;-76
2023/12/15 02:24:04;;;;;;;62.53;25.98;;;7.20;99.90;;;;;;4998704;28;20042;-77
2023/12/15 02:26:30;;;;;;;67.90;26.65;;;7.20;99.90;;;;;;4998810;28;20045;-76
2023/12/15 02:28:55;;;;;;;70.88;27.25;;;7.20;99.90;;;;;;4998752;28;20379;-78
2023/12/15 02:31:22;;;;;;;66.40;26.52;;;7.10;99.90;;;;;;4998541;28;20487;-78
2023/12/15 02:33:48;;;;;;;71.60;25.45;;;7.10;99.90;;;;;;4998491;28;20044;-77
2023/12/15 02:36:24;;;;;;;63.88;25.98;;;7.10;99.90;;;;;;4998770;28;20133;-77
2023/12/15 02:38:50;;;;;;;67.47;26.45;;;7.00;99.90;;;;;;4998478;28;20057;-77
2023/12/15 02:41:16;;;;;;;69.05;26.77;;;7.00;99.90;;;;;;5015805;28;20077;-76
2023/12/15 02:43:42;;;;;;;67.20;27.27;;;7.00;99.90;;;;;;4998369;28;20131;-76
2023/12/15 02:46:08;;;;;;;69.50;25.67;;;6.90;99.90;;;;;;4998584;28;20053;-76
2023/12/15 02:48:34;;;;;;;71.60;26.60;;;6.90;99.90;;;;;;5015776;28;20052;-77
2023/12/15 02:51:00;;;;;;;67.82;25.23;;;6.80;99.90;;;;;;4981855;28;20481;-78
2023/12/15 02:53:27;;;;;;;71.35;28.20;;;6.80;99.90;;;;;;5015864;28;20060;-78
2023/12/15 02:55:53;;;;;;;73.20;27.33;;;6.80;99.90;;;;;;4998421;28;20441;-76
2023/12/15 02:58:18;;;;;;;70.47;27.95;;;6.70;99.90;;;;;;4998103;28;20033;-77
2023/12/15 03:00:46;;;;;;;72.90;27.00;;;6.70;99.90;;;;;;5015763;28;20042;-77
2023/12/15 03:03:12;;;;;;;75.22;25.90;;;6.70;99.90;;;;;;5015803;28;20128;-77
2023/12/15 03:05:38;;;;;;;69.72;25.67;;;6.70;99.90;;;;;;4997972;28;20120;-76
2023/12/15 03:08:03;;;;;;;74.50;27.05;;;6.70;99.90;;;;;;5015943;28;20161;-77
2023/12/15 03:10:29;;;;;;;73.13;26.20;;;6.70;99.90;;;;;;4997121;28;20045;-77
2023/12/15 03:12:54;;;;;;;70.25;25.90;;;6.70;99.90;;;;;;5015601;28;20080;-78
2023/12/15 03:15:20;;;;;;;79.00;26.15;;;6.70;99.90;;;;;;5015607;28;20477;-76
2023/12/15 03:17:46;;;;;;;73.72;26.20;;;6.70;99.90;;;;;;4997717;28;20095;-78
2023/12/15 03:20:11;;;;;;;84.13;26.20;;;6.60;99.90;;;;;;5015453;28;20047;-76
2023/12/15 03:23:00;;;;;;;67.93;25.63;;;6.60;99.90;;;;;;4997410;28;20101;-77
2023/12/15 03:25:36;;;;;;;;;;;;;;;;;;;;;
2023/12/15 03:28:12;;;;;;;73.25;25.75;;;6.60;99.90;;;;;;4996834;28;20061;-77
2023/12/15 03:30:38;;;;;;;84.03;26.25;;;6.60;99.90;;;;;;4996740;28;20037;-77
2023/12/15 03:33:04;;;;;;;77.20;26.00;;;6.60;99.90;;;;;;5015059;28;20048;-76
2023/12/15 03:35:29;;;;;;;71.75;26.88;;;6.50;99.90;;;;;;5014760;28;20037;-77
2023/12/15 03:37:55;;;;;;;77.22;25.20;;;6.50;99.90;;;;;;4997188;28;20046;-77
2023/12/15 03:40:20;;;;;;;80.53;25.98;;;6.50;99.90;;;;;;5014951;28;20044;-76
2023/12/15 03:42:46;;;;;;;76.22;25.85;;;6.50;99.90;;;;;;4997353;28;20486;-77
2023/12/15 03:45:12;;;;;;;71.53;25.38;;;6.50;99.90;;;;;;4997058;28;20045;-76
2023/12/15 03:47:38;;;;;;;72.32;26.13;;;6.40;99.90;;;;;;4996997;28;20135;-78
2023/12/15 03:50:04;;;;;;;73.13;26.33;;;6.40;99.90;;;;;;5014491;28;20096;-77
2023/12/15 03:52:30;;;;;;;87.20;26.50;;;6.40;99.90;;;;;;4996711;28;20552;-76
2023/12/15 03:54:56;;;;;;;74.68;25.88;;;6.40;99.90;;;;;;5014742;28;20112;-79
2023/12/15 03:57:22;;;;;;;76.18;25.88;;;6.40;99.90;;;;;;4996932;28;20188;-77
2023/12/15 03:59:48;;;;;;;78.40;26.25;;;6.30;99.90;;;;;;5014620;28;20054;-77
2023/12/15 04:02:15;;;;;;;71.45;24.52;;;6.30;99.90;;;;;;5014563;28;20466;-77
2023/12/15 04:04:42;;;;;;;79.50;26.50;;;6.40;99.90;;;;;;5014211;28;20496;-77
2023/12/15 04:07:11;;;;;;;79.38;25.02;;;6.40;99.90;;;;;;4996836;28;20414;-77
2023/12/15 04:09:37;;;;;;;84.68;26.02;;;6.30;99.90;;;;;;5014919;28;20053;-77
2023/12/15 04:12:04;;;;;;;76.45;24.45;;;6.30;99.90;;;;;;4997135;28;20077;-79
2023/12/15 04:14:31;;;;;;;83.00;25.20;;;6.30;99.90;;;;;;4980793;28;20045;-78
2023/12/15 04:16:57;;;;;;;63.80;23.08;;;6.30;99.90;;;;;;5014570;28;20069;-77
2023/12/15 04:19:22;;;;;;;70.80;24.75;;;6.20;99.90;;;;;;5014554;28;20069;-77
2023/12/15 04:21:48;;;;;;;74.03;24.20;;;6.30;99.90;;;;;;5013460;28;20042;-78
2023/12/15 04:24:14;;;;;;;70.70;24.02;;;6.30;99.90;;;;;;4996588;28;20046;-77
2023/12/15 04:26:40;;;;;;;74.85;23.70;;;6.40;99.90;;;;;;4997003;28;20041;-76
2023/12/15 04:29:05;;;;;;;78.53;23.00;;;6.40;99.90;;;;;;5013915;28;20073;-78
2023/12/15 04:31:31;;;;;;;79.65;25.10;;;6.40;99.90;;;;;;4996639;28;20076;-76
2023/12/15 04:33:57;;;;;;;72.22;24.33;;;6.50;99.90;;;;;;5013844;28;20117;-77
2023/12/15 04:36:22;;;;;;;72.97;23.38;;;6.40;99.90;;;;;;4996460;28;20116;-78
2023/12/15 04:38:48;;;;;;;74.18;25.30;;;6.50;99.90;;;;;;4996616;28;20053;-77
2023/12/15 04:41:22;;;;;;;70.55;24.55;;;6.60;99.90;;;;;;4996222;28;20452;-78
2023/12/15 04:43:47;;;;;;;73.93;25.15;;;6.50;99.90;;;;;;4996316;28;20085;-76
2023/12/15 04:46:27;;;;;;;84.05;25.58;;;6.50;99.90;;;;;;5014046;28;20081;-76
2023/12/15 04:48:55;;;;;;;77.90;25.52;;;6.50;99.90;;;;;;4996230;28;20046;-76
2023/12/15 04:51:21;;;;;;;83.65;25.23;;;6.50;99.90;;;;;;4996273;28;20065;-77
2023/12/15 04:53:48;;;;;;;75.90;24.88;;;6.50;99.90;;;;;;4996413;28;20045;-77
2023/12/15 04:56:14;;;;;;;74.65;25.02;;;6.50;99.90;;;;;;5013682;28;20497;-76
2023/12/15 04:58:41;;;;;;;81.80;24.77;;;6.50;99.90;;;;;;4996417;28;20061;-76
2023/12/15 05:01:12;;;;;;;82.40;25.33;;;6.50;99.90;;;;;;5013737;28;20051;-77
2023/12/15 05:03:43;;;;;;;80.00;25.00;;;6.50;99.90;;;;;;4980375;28;20042;-76
2023/12/15 05:06:25;;;;;;;85.68;25.20;;;6.60;99.90;;;;;;5013597;28;20113;-76
2023/12/15 05:08:52;;;;;;;76.72;25.08;;;6.50;99.90;;;;;;5013763;28;20088;-77
2023/12/15 05:11:18;;;;;;;76.53;25.00;;;6.60;99.90;;;;;;4995734;28;20042;-76
2023/12/15 05:13:44;;;;;;;83.05;23.35;;;6.50;99.90;;;;;;5013615;28;20076;-76
2023/12/15 05:16:09;;;;;;;81.25;26.80;;;6.60;99.90;;;;;;5013443;28;20041;-77
2023/12/15 05:18:35;;;;;;;90.00;27.90;;;6.60;99.90;;;;;;5013322;28;20042;-77
2023/12/15 05:21:01;;;;;;;76.18;23.92;;;6.60;99.90;;;;;;5013601;28;20049;-77
2023/12/15 05:23:27;;;;;;;85.47;25.05;;;6.60;99.90;;;;;;4995993;28;20050;-78
2023/12/15 05:25:52;;;;;;;89.93;26.42;;;6.50;99.90;;;;;;4996059;28;20401;-77
2023/12/15 05:28:18;;;;;;;80.28;24.95;;;6.50;99.90;;;;;;4979358;28;20046;-76
2023/12/15 05:30:44;;;;;;;85.95;26.27;;;6.50;99.90;;;;;;4995871;28;20049;-76
2023/12/15 05:33:10;;;;;;;78.93;24.45;;;6.50;99.90;;;;;;4980881;28;20048;-77
2023/12/15 05:35:35;;;;;;;83.00;25.35;;;6.50;99.90;;;;;;5000351;28;20049;-77
2023/12/15 05:38:04;;;;;;;80.18;23.88;;;6.40;99.90;;;;;;4999477;28;20405;-77
2023/12/15 05:40:30;;;;;;;86.80;23.85;;;6.40;99.90;;;;;;5016881;28;20042;-77
2023/12/15 05:42:56;;;;;;;74.05;21.80;;;6.40;99.90;;;;;;4999631;28;20096;-77
2023/12/15 05:45:22;;;;;;;71.45;23.58;;;6.40;99.90;;;;;;4999540;28;20045;-77
2023/12/15 05:47:48;;;;;;;77.35;23.80;;;6.30;99.90;;;;;;5017037;28;20125;-76
2023/12/15 05:50:14;;;;;;;81.15;24.35;;;6.30;99.90;;;;;;5017352;28;20421;-77
2023/12/15 05:52:40;;;;;;;87.68;23.60;;;6.30;99.90;;;;;;4999015;28;20044;-77
2023/12/15 05:55:08;;;;;;;81.70;25.67;;;6.30;99.90;;;;;;4982824;28;20103;-76
2023/12/15 05:57:34;;;;;;;90.05;25.33;;;6.30;99.90;;;;;;5016600;28;20038;-77
2023/12/15 06:00:00;;;;;;;95.93;26.02;;;6.30;99.90;;;;;;4983189;28;20033;-77
2023/12/15 06:02:25;;;;;;;81.90;24.67;;;6.30;99.90;;;;;;5016759;28;20034;-76
2023/12/15 06:04:51;;;;;;;94.55;25.92;;;6.20;99.90;;;;;;5016825;28;20069;-76
2023/12/15 06:07:20;;;;;;;79.05;25.13;;;6.20;99.90;;;;;;4999031;28;20081;-77
2023/12/15 06:09:46;;;;;;;81.28;22.75;;;6.20;99.90;;;;;;4998820;28;20042;-76
2023/12/15 06:12:12;;;;;;;84.03;24.20;;;6.10;99.90;;;;;;4983097;28;20076;-78
2023/12/15 06:14:38;;;;;;;90.50;23.08;;;6.20;99.90;;;;;;5016641;28;20409;-76
2023/12/15 06:17:06;;;;;;;83.93;24.45;;;6.20;99.90;;;;;;4998757;28;20048;-78
2023/12/15 06:19:33;;;;;;;81.78;24.70;;;6.20;99.90;;;;;;4998971;28;20405;-78
2023/12/15 06:21:59;;;;;;;82.93;24.20;;;6.20;99.90;;;;;;4998780;28;20402;-76
2023/12/15 06:24:25;;;;;;;82.13;23.50;;;6.20;99.90;;;;;;4998816;28;20363;-77
2023/12/15 06:26:50;;;;;;;82.85;23.48;;;6.20;99.90;;;;;;4998811;28;20049;-77
2023/12/15 06:29:18;;;;;;;72.15;21.88;;;6.20;99.90;;;;;;5016351;28;20049;-78
2023/12/15 06:31:47;;;;;;;70.30;22.48;;;6.30;99.90;;;;;;4998416;28;20034;-76
2023/12/15 06:34:13;;;;;;;82.75;21.20;;;6.30;99.90;;;;;;5016329;28;20034;-77
2023/12/15 06:36:40;;;;;;;74.25;21.48;;;6.30;99.90;;;;;;4998319;28;20060;-77
2023/12/15 06:39:05;;;;;;;76.95;20.60;;;6.30;99.90;;;;;;4998912;28;20103;-78
2023/12/15 06:41:31;;;;;;;74.18;20.48;;;6.40;99.90;;;;;;4998940;28;20049;-76
2023/12/15 06:43:57;;;;;;;67.20;20.17;;;6.40;99.90;;;;;;4998223;28;20042;-77
2023/12/15 06:46:22;;;;;;;71.65;21.83;;;6.40;99.90;;;;;;5015302;28;20516;-78
2023/12/15 06:48:48;;;;;;;62.72;21.15;;;6.40;99.90;;;;;;5015932;28;20054;-77
2023/12/15 06:51:14;;;;;;;69.55;20.95;;;6.40;99.90;;;;;;5015757;28;20370;-77
2023/12/15 06:53:40;;;;;;;61.92;20.27;;;6.40;99.90;;;;;;4998438;28;20466;-77
2023/12/15 06:56:06;;;;;;;73.32;20.13;;;6.40;99.90;;;;;;4998099;28;20038;-78
2023/12/15 06:58:32;;;;;;;75.45;22.60;;;6.50;99.90;;;;;;4997995;28;20525;-78
2023/12/15 07:00:57;;;;;;;67.93;20.00;;;6.50;99.90;;;;;;4997944;28;20093;-76
2023/12/15 07:03:23;;;;;;;72.30;22.10;;;6.40;99.90;;;;;;4997793;28;20050;-76
2023/12/15 07:05:49;;;;;;;73.90;23.83;;;6.40;99.90;;;;;;4997813;28;20050;-77
2023/12/15 07:08:14;;;;;;;80.53;20.48;;;6.40;99.90;;;;;;4997832;28;20034;-76
2023/12/15 07:10:40;;;;;;;67.63;19.10;;;6.40;99.90;;;;;;4997749;28;20120;-76
2023/12/15 07:13:06;;;;;;;72.68;19.92;;;6.30;99.90;;;;;;5015558;28;20038;-76
2023/12/15 07:15:32;;;;;;;96.93;39.13;;;6.30;99.90;;;;;;4997679;28;20493;-76
2023/12/15 07:17:57;;;;;;;68.43;21.02;;;6.30;99.90;;;;;;5015237;28;20042;-78
2023/12/15 07:20:25;;;;;;;69.38;24.67;;;6.20;99.90;;;;;;4998452;28;20041;-78
2023/12/15 07:22:51;;;;;;;79.55;22.85;;;6.20;99.90;;;;;;4997370;28;20045;-79
2023/12/15 07:25:17;;;;;;;73.80;27.60;;;6.20;99.90;;;;;;5015310;28;20048;-77
2023/12/15 07:27:43;;;;;;;76.50;22.40;;;6.20;99.90;;;;;;4997353;28;20077;-76
2023/12/15 07:30:09;;;;;;;72.07;21.35;;;6.20;99.90;;;;;;4997562;28;20398;-77
2023/12/15 07:32:35;;;;;;;71.97;21.40;;;6.20;99.90;;;;;;4997388;28;20458;-77
2023/12/15 07:35:00;;;;;;;76.72;23.85;;;6.10;99.90;;;;;;4997135;28;20077;-76
2023/12/15 07:37:26;;;;;;;77.47;21.05;;;6.10;99.90;;;;;;5014695;28;20143;-77
2023/12/15 07:39:54;;;;;;;74.03;19.35;;;6.10;99.90;;;;;;4997081;28;20041;-77
2023/12/15 07:42:20;;;;;;;67.35;20.88;;;6.10;99.90;;;;;;5014697;28;20050;-77
2023/12/15 07:44:46;;;;;;;73.32;20.85;;;6.10;99.90;;;;;;4996861;28;20052;-77
2023/12/15 07:47:11;;;;;;;71.45;19.67;;;6.10;99.90;;;;;;5014945;28;20109;-75
2023/12/15 07:49:37;;;;;;;80.35;20.85;;;6.00;99.90;;;;;;4996732;28;20125;-77
2023/12/15 07:52:03;;;;;;;66.65;18.45;;;6.10;99.90;;;;;;5014339;28;20121;-76
2023/12/15 07:54:29;;;;;;;64.75;19.30;;;6.10;99.90;;;;;;5014830;28;20038;-76
2023/12/15 07:56:56;;;;;;;73.25;18.77;;;6.10;99.90;;;;;;4996595;28;20048;-77
2023/12/15 07:59:21;;;;;;;66.38;20.20;;;6.10;99.90;;;;;;5014795;28;20046;-77
2023/12/15 08:01:51;;;;;;;63.88;21.08;;;6.10;99.90;;;;;;5014391;28;20052;-77
2023/12/15 08:04:18;;;;;;;71.22;25.50;;;6.10;99.90;;;;;;4996708;28;20044;-78
2023/12/15 08:06:44;;;;;;;59.53;18.77;;;6.10;99.90;;;;;;4997000;28;20038;-77
2023/12/15 08:09:10;;;;;;;60.13;16.25;;;6.10;99.90;;;;;;4996593;28;20508;-78
2023/12/15 08:11:35;;;;;;;65.05;18.85;;;6.10;99.90;;;;;;4996864;28;20128;-77
2023/12/15 08:14:03;;;;;;;62.03;17.65;;;6.10;99.90;;;;;;5014499;28;20114;-77
2023/12/15 08:16:30;;;;;;;57.85;17.95;;;6.10;99.90;;;;;;4996497;28;20092;-77
2023/12/15 08:18:56;;;;;;;62.63;17.05;;;6.10;99.90;;;;;;5014206;28;20084;-76
2023/12/15 08:21:22;;;;;;;61.55;18.50;;;6.10;99.90;;;;;;4996412;28;20480;-76
2023/12/15 08:23:48;;;;;;;61.90;16.42;;;6.10;99.90;;;;;;4996541;28;20172;-77
2023/12/15 08:26:26;;;;;;;55.28;15.85;;;6.10;99.90;;;;;;4980377;28;20123;-77
2023/12/15 08:28:53;;;;;;;48.75;14.77;;;6.20;99.90;;;;;;4980144;28;20046;-77
2023/12/15 08:31:20;;;;;;;49.45;15.75;;;6.20;99.90;;;;;;4996295;28;20080;-77
2023/12/15 08:33:45;;;;;;;58.65;16.10;;;6.20;99.90;;;;;;5013920;28;20500;-76
2023/12/15 08:36:11;;;;;;;54.97;15.48;;;6.20;99.90;;;;;;5012963;28;20033;-76
2023/12/15 08:38:37;;;;;;;55.80;15.73;;;6.20;99.90;;;;;;4996143;28;20038;-77
2023/12/15 08:41:03;;;;;;;55.70;14.60;;;6.30;99.90;;;;;;4996174;28;20049;-76
2023/12/15 08:43:29;;;;;;;47.28;14.02;;;6.30;99.90;;;;;;5014072;28;20049;-76
2023/12/15 08:45:54;;;;;;;51.67;14.30;;;6.30;99.90;;;;;;4996265;28;20481;-77
2023/12/15 08:48:20;;;;;;;48.13;13.95;;;6.40;99.90;;;;;;4995943;28;20398;-76
2023/12/15 08:51:27;;;;;;;;;;;;;;;;;;;;;
2023/12/15 09:02:17;;;;;;;43.05;12.43;;;6.50;99.90;;;;;;4983381;28;20069;-76
2023/12/15 09:09:37;;;;;;;;;;;;;;;;;;;;;
2023/12/15 09:12:03;;;;;;;50.08;11.02;;;6.60;99.90;;;;;;4969821;28;20058;-75
2023/12/15 09:14:30;;;;;;;42.88;11.35;;;6.60;99.90;;;;;;4998063;28;20058;-76
2023/12/15 09:16:56;;;;;;;38.70;10.23;;;6.70;99.90;;;;;;4998126;28;20034;-76
2023/12/15 09:19:22;;;;;;;47.25;11.75;;;6.70;99.90;;;;;;4964734;28;20064;-77
2023/12/15 09:21:48;;;;;;;36.25;9.95;;;6.80;99.90;;;;;;4997891;28;20117;-76
2023/12/15 09:24:14;;;;;;;37.72;10.25;;;6.80;99.90;;;;;;4980825;28;20092;-77
2023/12/15 09:26:42;;;;;;;48.92;11.40;;;6.90;99.90;;;;;;4997902;28;20389;-76
2023/12/15 09:29:09;;;;;;;44.88;12.15;;;7.00;99.90;;;;;;4980296;28;20050;-76
2023/12/15 09:31:35;;;;;;;40.75;10.48;;;7.10;99.90;;;;;;4979880;28;20049;-76
2023/12/15 09:34:00;;;;;;;51.83;12.48;;;7.10;99.90;;;;;;4997605;28;20042;-76
2023/12/15 09:36:26;;;;;;;46.75;10.80;;;7.10;99.90;;;;;;4964053;28;20061;-76
2023/12/15 09:38:53;;;;;;;39.53;11.40;;;7.20;99.90;;;;;;4979782;28;20486;-76
2023/12/15 09:42:23;;;;;;;;;;;;;;;;;;;;;
2023/12/15 09:49:19;;;;;;;;;;;;;;;;;;;;;
2023/12/15 09:52:37;;;;;;;;;;;;;;;;;;;;;
2023/12/15 09:56:04;;;;;;;;;;;;;;;;;;;;;
2023/12/15 10:02:30;;;;;;;41.95;8.35;;;7.60;99.90;;;;;;5015313;22;20133;-75
2023/12/15 10:06:03;;;;;;;;;;;;;;;;;;;;;
2023/12/15 10:09:32;;;;;;;;;;;;;;;;;;;;;
2023/12/15 10:16:36;;;;;;;;;;;;;;;;;;;;;
2023/12/15 10:23:55;;;;;;;41.72;8.70;;;8.20;99.90;;;;;;4897835;29;20432;-76
2023/12/15 10:27:20;;;;;;;;;;;;;;;;;;;;;
2023/12/15 10:33:45;;;;;;;32.08;6.88;;;8.30;99.90;;;;;;4953347;28;20093;-75
2023/12/15 10:36:13;;;;;;;37.42;7.95;;;8.40;99.90;;;;;;4959066;28;20626;-76
2023/12/15 10:38:38;;;;;;;37.15;6.90;;;8.50;99.90;;;;;;4958900;28;20494;-75
2023/12/15 10:46:11;;;;;;;;;;;;;;;;;;;;;
2023/12/15 11:17:42;;;;;;;34.40;9.75;;;8.90;99.90;;;;;;4881796;29;20197;-77
2023/12/15 11:21:04;;;;;;;32.63;7.18;;;8.90;99.90;;;;;;4840990;29;20600;-76
2023/12/15 11:24:03;;;;;;;33.95;6.95;;;8.90;99.90;;;;;;4893652;29;20523;-77
2023/12/15 11:33:56;;;;;;;43.53;8.18;;;9.00;99.90;;;;;;5085985;22;20513;-77
2023/12/15 11:36:41;;;;;;;40.22;8.20;;;9.10;99.90;;;;;;4878892;29;20045;-77
2023/12/15 11:39:12;;;;;;;37.53;9.02;;;9.10;99.90;;;;;;4926774;29;20056;-74
2023/12/15 11:41:38;;;;;;;43.97;7.95;;;9.10;99.90;;;;;;4919389;29;20043;-76
2023/12/15 11:44:05;;;;;;;37.20;7.18;;;9.10;99.90;;;;;;4935362;29;20373;-76
2023/12/15 11:46:33;;;;;;;35.08;6.93;;;9.20;99.90;;;;;;4935450;29;20047;-75
2023/12/15 11:49:02;;;;;;;34.83;6.95;;;9.20;99.90;;;;;;4935537;29;20181;-75
2023/12/15 11:51:30;;;;;;;35.17;6.90;;;9.20;99.90;;;;;;4937096;29;20138;-76
2023/12/15 11:54:00;;;;;;;45.90;6.70;;;9.30;99.90;;;;;;4930692;29;20043;-75
2023/12/15 11:56:26;;;;;;;37.67;6.25;;;9.30;99.90;;;;;;4943406;28;20424;-74
2023/12/15 11:58:52;;;;;;;34.83;6.40;;;9.40;99.90;;;;;;4996741;28;20529;-75
2023/12/15 12:01:18;;;;;;;37.58;6.40;;;9.30;99.90;;;;;;5013920;28;20038;-75
2023/12/15 12:03:44;;;;;;;36.35;6.57;;;9.50;99.90;;;;;;5014179;28;20121;-75
2023/12/15 12:06:20;;;;;;;31.92;7.18;;;9.50;99.90;;;;;;5000394;28;20050;-76
2023/12/15 12:08:46;;;;;;;26.63;6.35;;;9.50;99.90;;;;;;4977131;28;20121;-77
2023/12/15 12:11:12;;;;;;;37.15;7.63;;;9.50;99.90;;;;;;4977280;28;20084;-76
2023/12/15 12:13:39;;;;;;;44.67;7.25;;;9.50;99.90;;;;;;4977080;28;20065;-76
2023/12/15 12:16:05;;;;;;;33.75;7.43;;;9.50;99.90;;;;;;4977140;28;20057;-75
2023/12/15 12:18:31;;;;;;;46.03;9.07;;;9.40;99.90;;;;;;4994662;28;20100;-76
2023/12/15 12:21:09;;;;;;;40.13;8.40;;;9.30;99.90;;;;;;4994667;28;20046;-75
2023/12/15 12:23:36;;;;;;;39.15;16.50;;;9.40;99.90;;;;;;4977045;28;20046;-75
2023/12/15 12:26:02;;;;;;;38.17;6.53;;;9.40;99.90;;;;;;4976922;28;20050;-77
2023/12/15 12:28:45;;;;;;;40.47;15.63;;;9.40;99.90;;;;;;4977219;28;20068;-76
2023/12/15 12:31:10;;;;;;;33.95;8.23;;;9.40;99.90;;;;;;4994507;28;20117;-74
2023/12/15 12:33:36;;;;;;;71.10;27.38;;;9.50;99.90;;;;;;4976834;28;20450;-75
2023/12/15 12:36:02;;;;;;;56.08;16.75;;;9.50;99.90;;;;;;4993933;28;20030;-75
2023/12/15 12:38:28;;;;;;;35.95;9.30;;;9.40;99.90;;;;;;4976674;28;20486;-74
2023/12/15 12:40:55;;;;;;;31.80;5.65;;;9.50;99.90;;;;;;4960610;28;20108;-75
2023/12/15 12:43:20;;;;;;;27.85;7.25;;;9.50;99.90;;;;;;4975982;28;20042;-75
2023/12/15 12:45:46;;;;;;;27.63;6.07;;;9.50;99.90;;;;;;4994422;28;20524;-75
2023/12/15 12:48:12;;;;;;;30.98;7.03;;;9.50;99.90;;;;;;4976872;28;20133;-76
2023/12/15 12:50:37;;;;;;;37.78;7.60;;;9.50;99.90;;;;;;4976709;28;20038;-76
2023/12/15 12:53:03;;;;;;;27.65;5.88;;;9.60;99.90;;;;;;4976778;28;20042;-75
2023/12/15 12:55:29;;;;;;;34.50;6.88;;;9.60;99.90;;;;;;4994149;28;20502;-76
2023/12/15 12:57:55;;;;;;;38.35;8.13;;;9.60;99.90;;;;;;4993854;28;20084;-76
2023/12/15 13:00:21;;;;;;;24.55;5.35;;;9.60;99.90;;;;;;4994361;28;20378;-75
2023/12/15 13:02:47;;;;;;;33.10;5.53;;;9.60;99.90;;;;;;4993822;28;20117;-74
2023/12/15 13:05:12;;;;;;;34.00;6.18;;;9.60;99.90;;;;;;4994127;28;20122;-76
2023/12/15 13:07:38;;;;;;;33.17;6.82;;;9.70;99.90;;;;;;4976388;28;20042;-76
2023/12/15 13:10:17;;;;;;;44.30;13.02;;;9.70;99.90;;;;;;4976170;28;20046;-75
2023/12/15 13:12:44;;;;;;;24.63;4.68;;;9.80;99.90;;;;;;4976471;28;20105;-76
2023/12/15 13:15:14;;;;;;;36.05;6.38;;;9.90;99.90;;;;;;4976362;28;20042;-75
2023/12/15 13:17:40;;;;;;;27.98;5.03;;;10.00;99.90;;;;;;4976068;28;20437;-75
2023/12/15 13:20:09;;;;;;;32.67;5.78;;;10.00;99.90;;;;;;4993888;28;20104;-76
2023/12/15 13:22:36;;;;;;;29.10;5.85;;;9.90;99.90;;;;;;4976084;28;20054;-75
2023/12/15 13:25:04;;;;;;;33.38;4.60;;;9.90;99.90;;;;;;4960131;28;20213;-77
2023/12/15 13:27:29;;;;;;;22.23;5.10;;;9.80;99.90;;;;;;4976291;28;20046;-76
2023/12/15 13:29:55;;;;;;;24.95;4.05;;;9.80;99.90;;;;;;4993787;28;20088;-76
2023/12/15 13:32:20;;;;;;;34.22;5.28;;;9.80;99.90;;;;;;4960155;28;20096;-75
2023/12/15 13:34:46;;;;;;;24.77;4.25;;;9.80;99.90;;;;;;4976043;28;20433;-77
2023/12/15 13:37:12;;;;;;;31.17;4.45;;;9.70;99.90;;;;;;4975504;28;20046;-76
2023/12/15 13:39:39;;;;;;;28.38;5.07;;;9.80;99.90;;;;;;4976139;28;20073;-75
2023/12/15 13:42:05;;;;;;;30.42;5.45;;;9.70;99.90;;;;;;5009523;28;20034;-77
2023/12/15 13:44:30;;;;;;;31.35;5.00;;;9.70;99.90;;;;;;4979196;28;20052;-76
2023/12/15 13:46:56;;;;;;;35.08;4.78;;;9.70;99.90;;;;;;4978951;28;20046;-76
2023/12/15 13:49:22;;;;;;;27.23;5.63;;;9.70;99.90;;;;;;4995687;28;20049;-76
2023/12/15 13:51:47;;;;;;;26.85;4.35;;;9.60;99.90;;;;;;5012719;28;20046;-75
2023/12/15 13:54:13;;;;;;;23.33;4.30;;;9.60;99.90;;;;;;4996714;28;20080;-76
2023/12/15 13:56:40;;;;;;;31.27;5.20;;;9.50;99.90;;;;;;4983092;28;20042;-76
2023/12/15 13:59:06;;;;;;;25.88;4.72;;;9.50;99.90;;;;;;4998907;28;20053;-76
2023/12/15 14:01:32;;;;;;;24.50;5.00;;;9.50;99.90;;;;;;5016688;28;20455;-75
2023/12/15 14:03:57;;;;;;;29.73;5.55;;;9.50;99.90;;;;;;5016214;28;20402;-77
2023/12/15 14:06:23;;;;;;;22.98;5.00;;;9.50;99.90;;;;;;4998847;28;20121;-76
2023/12/15 14:08:49;;;;;;;31.85;4.93;;;9.40;99.90;;;;;;4998790;28;20111;-76
2023/12/15 14:11:14;;;;;;;31.00;4.55;;;9.40;99.90;;;;;;5016465;28;20481;-76
2023/12/15 14:13:41;;;;;;;27.05;5.28;;;9.40;99.90;;;;;;4990006;28;20045;-76
2023/12/15 14:16:07;;;;;;;34.17;6.57;;;9.30;99.90;;;;;;4996644;28;20121;-76
2023/12/15 14:18:33;;;;;;;38.05;6.78;;;9.30;99.90;;;;;;4979326;28;20042;-76
2023/12/15 14:20:58;;;;;;;39.75;7.78;;;9.30;99.90;;;;;;4979191;28;20045;-75
2023/12/15 14:23:24;;;;;;;28.67;5.70;;;9.30;99.90;;;;;;4996630;28;20432;-75
2023/12/15 14:25:49;;;;;;;22.13;5.15;;;9.20;99.90;;;;;;4996555;28;20050;-76
2023/12/15 14:28:15;;;;;;;32.25;5.28;;;9.20;99.90;;;;;;4979141;28;20046;-76
2023/12/15 14:30:41;;;;;;;50.45;11.70;;;9.20;99.90;;;;;;4996525;28;20089;-76
2023/12/15 14:33:07;;;;;;;61.85;14.00;;;9.10;99.90;;;;;;4978923;28;20043;-78
2023/12/15 14:35:33;;;;;;;93.78;25.33;;;9.10;99.90;;;;;;4979141;28;20062;-76
2023/12/15 14:37:59;;;;;;;75.03;19.90;;;9.10;99.90;;;;;;4978829;28;20475;-76
2023/12/15 14:40:26;;;;;;;78.45;23.50;;;9.10;99.90;;;;;;4996502;28;20043;-78
2023/12/15 14:42:52;;;;;;;40.13;7.07;;;9.00;99.90;;;;;;4978967;28;20441;-76
2023/12/15 14:45:17;;;;;;;58.47;15.15;;;9.00;99.90;;;;;;4996544;28;20038;-76
2023/12/15 14:47:43;;;;;;;43.35;12.15;;;9.00;99.90;;;;;;4978815;28;20046;-77
2023/12/15 14:50:09;;;;;;;35.60;9.35;;;8.90;99.90;;;;;;4978953;28;20132;-76
2023/12/15 14:52:34;;;;;;;27.98;7.47;;;8.80;99.90;;;;;;4978940;28;20128;-76
2023/12/15 14:55:01;;;;;;;28.45;6.60;;;8.90;99.90;;;;;;4978938;28;20486;-76
2023/12/15 14:57:27;;;;;;;24.20;5.32;;;8.80;99.90;;;;;;4986544;28;20126;-75
2023/12/15 14:59:53;;;;;;;28.52;5.05;;;8.80;99.90;;;;;;4978493;28;20125;-77
2023/12/15 15:02:18;;;;;;;26.52;5.28;;;8.70;99.90;;;;;;4978661;28;20049;-76
2023/12/15 15:04:44;;;;;;;25.05;5.47;;;8.70;99.90;;;;;;4977942;28;20350;-76